Time;durP1;ratioP1;P1;durP2;ratioP2;P2;SDS_P1;SDS_P2;PMS_P1;PMS_P2;Temp;Humidity;BMP_temperature;BMP_pressure;BME280_temperature;BME280_humidity;BME280_pressure;Samples;Min_cycle;Max_cycle;Signal;HPM_P1;HPM_P2
2022/11/25 00:00:28;;;;;;;1.20;0.70;;;2.30;99.90;;;;;;5031718;28;19924;-54
2022/11/25 00:02:55;;;;;;;;;;;2.40;99.90;;;;;;5035323;28;20045;-54
2022/11/25 00:05:24;;;;;;;0.90;0.68;;;2.30;99.90;;;;;;4998400;28;20072;-55
2022/11/25 00:07:51;;;;;;;1.40;0.70;;;2.30;99.90;;;;;;5029818;28;20048;-54
2022/11/25 00:10:18;;;;;;;1.52;0.70;;;2.30;99.90;;;;;;5031311;28;20043;-53
2022/11/25 00:12:44;;;;;;;;;;;2.30;99.90;;;;;;5034363;28;20506;-53
2022/11/25 00:15:11;;;;;;;0.60;0.38;;;2.30;99.90;;;;;;5037761;28;20142;-53
2022/11/25 00:17:38;;;;;;;;;;;2.30;99.90;;;;;;5033536;28;20130;-52
2022/11/25 00:20:05;;;;;;;0.93;0.65;;;2.30;99.90;;;;;;5033019;28;20400;-53
2022/11/25 00:22:32;;;;;;;0.60;0.60;;;2.30;99.90;;;;;;5028765;28;20404;-56
2022/11/25 00:24:59;;;;;;;1.98;0.73;;;2.30;99.90;;;;;;5011640;28;20111;-54
2022/11/25 00:27:26;;;;;;;;;;;2.30;99.90;;;;;;5030364;28;20259;-53
2022/11/25 00:29:52;;;;;;;1.02;0.50;;;2.30;99.90;;;;;;5031645;28;20789;-51
2022/11/25 00:32:19;;;;;;;2.13;0.68;;;2.30;99.90;;;;;;5013965;28;20582;-54
2022/11/25 00:34:46;;;;;;;;;;;2.30;99.90;;;;;;5029735;28;20382;-54
2022/11/25 00:37:13;;;;;;;0.50;0.47;;;2.30;99.90;;;;;;5030641;28;20323;-52
2022/11/25 00:39:40;;;;;;;1.25;0.80;;;2.30;99.90;;;;;;5029621;28;20545;-54
2022/11/25 00:44:54;;;;;;;0.70;0.43;;;2.40;99.90;;;;;;5027529;28;20318;-53
2022/11/25 00:47:21;;;;;;;1.02;0.52;;;2.40;99.90;;;;;;5028810;28;20439;-52
2022/11/25 00:49:53;;;;;;;1.30;0.40;;;2.40;99.90;;;;;;4992976;28;20041;-53
2022/11/25 00:52:25;;;;;;;1.67;0.60;;;2.40;99.90;;;;;;5010515;28;20052;-53
2022/11/25 00:54:52;;;;;;;2.63;0.55;;;2.40;99.90;;;;;;5028042;28;20045;-53
2022/11/25 00:57:22;;;;;;;0.30;0.30;;;2.40;99.90;;;;;;5029869;28;20048;-50
2022/11/25 00:59:49;;;;;;;0.40;0.40;;;2.40;99.90;;;;;;5014593;28;20269;-52
2022/11/25 01:02:17;;;;;;;2.08;0.57;;;2.40;99.90;;;;;;5030362;28;20593;-54
2022/11/25 01:04:45;;;;;;;1.02;0.30;;;2.40;99.90;;;;;;5030185;28;20045;-53
2022/11/25 01:07:14;;;;;;;2.50;0.45;;;2.40;99.90;;;;;;5013522;28;20157;-53
2022/11/25 01:09:41;;;;;;;0.68;0.40;;;2.40;99.90;;;;;;5015786;28;20114;-54
2022/11/25 01:12:08;;;;;;;;;;;2.40;99.90;;;;;;5032273;28;20091;-54
2022/11/25 01:14:35;;;;;;;0.40;0.30;;;2.40;99.90;;;;;;5028331;28;20185;-54
2022/11/25 01:17:03;;;;;;;0.40;0.40;;;2.50;99.90;;;;;;5029310;28;20051;-55
2022/11/25 01:19:31;;;;;;;0.60;0.50;;;2.50;99.90;;;;;;5011858;28;20103;-55
2022/11/25 01:21:59;;;;;;;0.25;0.25;;;2.50;99.90;;;;;;5030252;28;20420;-51
2022/11/25 01:24:25;;;;;;;1.38;0.35;;;2.50;99.90;;;;;;5029405;28;20041;-54
2022/11/25 01:26:53;;;;;;;;;;;2.50;99.90;;;;;;5028315;28;20041;-54
2022/11/25 01:29:21;;;;;;;1.05;0.47;;;2.40;99.90;;;;;;5031547;28;20422;-54
2022/11/25 01:31:48;;;;;;;1.48;0.70;;;2.50;99.90;;;;;;5029643;28;20083;-55
2022/11/25 01:34:21;;;;;;;1.23;0.60;;;2.40;99.90;;;;;;5031680;28;20800;-55
2022/11/25 01:36:48;;;;;;;3.85;1.20;;;2.40;99.90;;;;;;5013874;28;20044;-51
2022/11/25 01:39:24;;;;;;;0.85;0.60;;;2.40;99.90;;;;;;5027748;28;20169;-54
2022/11/25 01:41:59;;;;;;;0.40;0.22;;;2.40;99.90;;;;;;5031614;28;20064;-55
2022/11/25 01:44:27;;;;;;;0.30;0.30;;;2.40;99.90;;;;;;5029295;28;20102;-55
2022/11/25 01:47:24;;;;;;;1.17;0.52;;;2.40;99.90;;;;;;4994721;28;20275;-54
2022/11/25 01:50:02;;;;;;;1.10;0.63;;;2.40;99.90;;;;;;5028645;28;20478;-54
2022/11/25 01:52:37;;;;;;;4.72;0.93;;;2.40;99.90;;;;;;4997993;28;20570;-54
2022/11/25 01:55:12;;;;;;;1.65;0.88;;;2.40;99.90;;;;;;4995426;28;20057;-54
2022/11/25 01:57:49;;;;;;;0.80;0.75;;;2.40;99.90;;;;;;4993148;28;20055;-55
2022/11/25 02:00:17;;;;;;;0.88;0.75;;;2.40;99.90;;;;;;5013374;28;20539;-53
2022/11/25 02:02:46;;;;;;;3.53;1.02;;;2.40;99.90;;;;;;5028704;28;20227;-53
2022/11/25 02:05:18;;;;;;;2.72;1.05;;;2.40;99.90;;;;;;5011641;28;20055;-51
2022/11/25 02:07:49;;;;;;;1.30;0.95;;;2.40;99.90;;;;;;5028833;28;20190;-54
2022/11/25 02:10:26;;;;;;;4.82;0.98;;;2.30;99.90;;;;;;5012810;28;20041;-54
2022/11/25 02:12:53;;;;;;;1.10;0.80;;;2.40;99.90;;;;;;5029618;28;20056;-53
2022/11/25 02:15:21;;;;;;;1.98;0.82;;;2.30;99.90;;;;;;5027565;28;20114;-53
2022/11/25 02:17:48;;;;;;;2.75;1.17;;;2.30;99.90;;;;;;5012660;28;20446;-55
2022/11/25 02:20:21;;;;;;;1.33;1.00;;;2.30;99.90;;;;;;5027893;28;20560;-52
2022/11/25 02:23:24;;;;;;;1.42;0.90;;;2.30;99.90;;;;;;4993843;28;20155;-54
2022/11/25 02:25:53;;;;;;;1.63;0.70;;;2.30;99.90;;;;;;4983980;28;20313;-54
2022/11/25 02:28:29;;;;;;;1.75;1.15;;;2.30;99.90;;;;;;5011316;28;20043;-53
2022/11/25 02:30:57;;;;;;;1.95;0.90;;;2.30;99.90;;;;;;5016402;28;20041;-55
2022/11/25 02:33:24;;;;;;;4.72;0.93;;;2.30;99.90;;;;;;5026855;28;20154;-57
2022/11/25 02:35:58;;;;;;;1.90;1.00;;;2.20;99.90;;;;;;5011694;28;20045;-57
2022/11/25 02:38:44;;;;;;;1.42;0.70;;;2.30;99.90;;;;;;5011710;28;20515;-53
2022/11/25 02:41:21;;;;;;;1.15;0.50;;;2.30;99.90;;;;;;5014930;28;20048;-53
2022/11/25 02:43:54;;;;;;;1.95;0.93;;;2.30;99.90;;;;;;5027209;28;20053;-54
2022/11/25 02:46:23;;;;;;;0.32;0.32;;;2.40;99.90;;;;;;5013957;28;20770;-54
2022/11/25 02:48:52;;;;;;;1.23;1.13;;;2.40;99.90;;;;;;4996009;28;20566;-54
2022/11/25 02:51:36;;;;;;;3.72;0.60;;;2.50;99.90;;;;;;5013613;28;20145;-55
2022/11/25 02:54:03;;;;;;;2.92;0.45;;;2.50;99.90;;;;;;5028634;28;20041;-55
2022/11/25 02:56:33;;;;;;;0.90;0.60;;;2.50;99.90;;;;;;5034551;28;20044;-54
2022/11/25 02:59:00;;;;;;;1.05;0.68;;;2.60;99.90;;;;;;5013692;28;20072;-54
2022/11/25 03:01:30;;;;;;;1.25;0.40;;;2.50;99.90;;;;;;5016903;28;20041;-55
2022/11/25 03:03:57;;;;;;;0.40;0.40;;;2.60;99.90;;;;;;4997949;28;20057;-55
2022/11/25 03:06:26;;;;;;;0.50;0.50;;;2.60;99.90;;;;;;5031189;28;20505;-56
2022/11/25 03:08:54;;;;;;;2.28;0.70;;;2.60;99.90;;;;;;4997461;28;20128;-54
2022/11/25 03:12:17;;;;;;;0.93;0.50;;;2.60;99.90;;;;;;5033857;28;20588;-54
2022/11/25 03:14:08;;;;;;;1.42;0.70;;;2.60;99.90;;;;;;5016583;28;20544;-54
2022/11/25 03:16:34;;;;;;;;;;;2.60;99.90;;;;;;5017276;28;20225;-53
2022/11/25 03:19:03;;;;;;;;;;;2.60;99.90;;;;;;5017025;28;20653;-53
2022/11/25 03:21:29;;;;;;;1.80;0.60;;;2.60;99.90;;;;;;5018526;28;19966;-53
2022/11/25 03:23:57;;;;;;;3.55;0.57;;;2.60;99.90;;;;;;5030834;28;20046;-56
2022/11/25 03:26:24;;;;;;;0.75;0.60;;;2.60;99.90;;;;;;5033336;28;20419;-55
2022/11/25 03:28:51;;;;;;;0.52;0.50;;;2.60;99.90;;;;;;5030928;28;20049;-56
2022/11/25 03:31:18;;;;;;;1.25;0.70;;;2.60;99.90;;;;;;5014739;28;20047;-54
2022/11/25 03:33:45;;;;;;;0.50;0.50;;;2.60;99.90;;;;;;5011615;28;20052;-53
2022/11/25 03:36:12;;;;;;;1.38;0.55;;;2.60;99.90;;;;;;5035590;28;20045;-56
2022/11/25 03:38:39;;;;;;;;;;;2.60;99.90;;;;;;5033110;28;20055;-54
2022/11/25 03:41:06;;;;;;;1.73;0.63;;;2.60;99.90;;;;;;5013000;28;19929;-56
2022/11/25 03:43:34;;;;;;;4.50;0.85;;;2.60;99.90;;;;;;5015803;28;20056;-53
2022/11/25 03:46:01;;;;;;;1.30;0.73;;;2.60;99.90;;;;;;5016506;28;20495;-55
2022/11/25 03:48:28;;;;;;;0.90;0.52;;;2.60;99.90;;;;;;5000079;28;20513;-54
2022/11/25 03:50:55;;;;;;;0.80;0.57;;;2.60;99.90;;;;;;5014298;28;20587;-55
2022/11/25 03:53:23;;;;;;;2.80;0.52;;;2.60;99.90;;;;;;4996392;28;20051;-56
2022/11/25 03:55:51;;;;;;;0.82;0.38;;;2.60;99.90;;;;;;5016871;28;20567;-52
2022/11/25 03:58:20;;;;;;;1.67;0.55;;;2.60;99.90;;;;;;5015308;28;20413;-51
2022/11/25 04:00:49;;;;;;;0.63;0.43;;;2.70;99.90;;;;;;5014222;28;20566;-52
2022/11/25 04:03:16;;;;;;;1.48;0.40;;;2.70;99.90;;;;;;5011742;28;20118;-55
2022/11/25 04:05:43;;;;;;;2.55;0.65;;;2.70;99.90;;;;;;4999374;28;20139;-53
2022/11/25 04:08:11;;;;;;;0.40;0.40;;;2.70;99.90;;;;;;4996785;28;20124;-51
2022/11/25 04:10:38;;;;;;;2.47;0.63;;;2.70;99.90;;;;;;5033624;28;20322;-51
2022/11/25 04:13:05;;;;;;;1.75;1.08;;;2.70;99.90;;;;;;4999939;28;20048;-49
2022/11/25 04:15:36;;;;;;;2.58;0.50;;;2.60;99.90;;;;;;5018599;28;20044;-53
2022/11/25 04:18:04;;;;;;;1.55;0.95;;;2.70;99.90;;;;;;5017784;28;20036;-52
2022/11/25 04:20:32;;;;;;;0.75;0.55;;;2.60;99.90;;;;;;5014469;28;20045;-57
2022/11/25 04:23:05;;;;;;;2.03;0.55;;;2.60;99.90;;;;;;4984312;28;20040;-54
2022/11/25 04:25:35;;;;;;;2.15;0.85;;;2.60;99.90;;;;;;5012506;28;20131;-52
2022/11/25 04:28:10;;;;;;;0.43;0.38;;;2.60;99.90;;;;;;5029115;28;20033;-55
2022/11/25 04:30:37;;;;;;;;;;;2.60;99.90;;;;;;5032336;28;20116;-52
2022/11/25 04:33:04;;;;;;;0.82;0.65;;;2.70;99.90;;;;;;5030794;28;19959;-51
2022/11/25 04:35:31;;;;;;;0.98;0.70;;;2.60;99.90;;;;;;5012175;28;20406;-53
2022/11/25 04:37:58;;;;;;;;;;;2.60;99.90;;;;;;5018265;28;20418;-53
2022/11/25 04:40:26;;;;;;;0.70;0.45;;;2.60;99.90;;;;;;5027345;28;20349;-51
2022/11/25 04:43:09;;;;;;;0.75;0.30;;;2.70;99.90;;;;;;5034762;28;20072;-50
2022/11/25 04:45:40;;;;;;;0.82;0.57;;;2.70;99.90;;;;;;5015707;28;20048;-51
2022/11/25 04:48:28;;;;;;;3.10;0.32;;;2.70;99.90;;;;;;5014272;28;20128;-52
2022/11/25 04:50:55;;;;;;;0.75;0.52;;;2.70;99.90;;;;;;5015653;28;20083;-54
2022/11/25 04:53:21;;;;;;;3.83;0.50;;;2.70;99.90;;;;;;5013720;28;20386;-53
2022/11/25 04:55:48;;;;;;;;;;;2.70;99.90;;;;;;4999727;28;20044;-53
2022/11/25 04:59:38;;;;;;;0.32;0.30;;;2.70;99.90;;;;;;5026823;28;19931;-50
2022/11/25 05:01:05;;;;;;;0.30;0.30;;;2.70;99.90;;;;;;4998171;28;20524;-51
2022/11/25 05:03:33;;;;;;;2.20;0.50;;;2.80;99.90;;;;;;4998109;28;20563;-55
2022/11/25 05:06:06;;;;;;;0.57;0.45;;;2.80;99.90;;;;;;5032264;28;20044;-53
2022/11/25 05:08:35;;;;;;;0.60;0.40;;;2.90;99.90;;;;;;5014128;28;20136;-55
2022/11/25 05:11:01;;;;;;;1.00;0.52;;;2.90;99.90;;;;;;5011649;28;20446;-53
2022/11/25 05:13:28;;;;;;;1.48;0.50;;;2.90;99.90;;;;;;5014336;28;20506;-55
2022/11/25 05:15:58;;;;;;;0.75;0.43;;;3.00;99.90;;;;;;5029075;28;20056;-54
2022/11/25 05:18:25;;;;;;;1.25;0.50;;;3.00;99.90;;;;;;5010298;28;20526;-53
2022/11/25 05:20:52;;;;;;;;;;;3.00;99.90;;;;;;5015209;28;20174;-54
2022/11/25 05:23:20;;;;;;;;;;;3.00;99.90;;;;;;5015926;28;19924;-54
2022/11/25 05:25:47;;;;;;;3.47;0.55;;;3.00;99.90;;;;;;4998540;28;20401;-55
2022/11/25 05:28:37;;;;;;;2.97;0.45;;;2.90;99.90;;;;;;5027177;28;20585;-52
2022/11/25 05:31:04;;;;;;;0.80;0.52;;;2.90;99.90;;;;;;4987806;28;20336;-53
2022/11/25 05:33:31;;;;;;;0.30;0.30;;;3.00;99.90;;;;;;5030414;28;20052;-53
2022/11/25 05:35:59;;;;;;;;;;;3.00;99.90;;;;;;5013980;28;20386;-53
2022/11/25 05:38:33;;;;;;;0.45;0.30;;;2.90;99.90;;;;;;4999039;28;20179;-54
2022/11/25 05:41:05;;;;;;;0.40;0.40;;;2.90;99.90;;;;;;5022143;28;20162;-52
2022/11/25 05:43:32;;;;;;;0.30;0.30;;;2.90;99.90;;;;;;4996418;28;20049;-51
2022/11/25 05:46:04;;;;;;;0.50;0.50;;;2.90;99.90;;;;;;5014836;28;20052;-55
2022/11/25 05:48:33;;;;;;;0.60;0.50;;;2.90;99.90;;;;;;5015625;28;20528;-53
2022/11/25 05:51:01;;;;;;;1.45;0.45;;;2.90;99.90;;;;;;5012994;28;20619;-55
2022/11/25 05:53:30;;;;;;;0.43;0.32;;;2.90;99.90;;;;;;5011293;28;20350;-55
2022/11/25 05:55:59;;;;;;;1.13;0.50;;;2.80;99.90;;;;;;5016704;28;20482;-54
2022/11/25 05:58:45;;;;;;;0.70;0.40;;;2.90;99.90;;;;;;5029228;28;20639;-54
2022/11/25 06:01:15;;;;;;;0.50;0.30;;;2.90;99.90;;;;;;5009972;28;20170;-52
2022/11/25 06:03:43;;;;;;;1.20;0.70;;;2.90;99.90;;;;;;5012709;28;20096;-53
2022/11/25 06:06:10;;;;;;;0.38;0.38;;;2.90;99.90;;;;;;4995968;28;20056;-53
2022/11/25 06:08:38;;;;;;;1.17;0.60;;;2.90;99.90;;;;;;5013616;28;20057;-54
2022/11/25 06:11:07;;;;;;;1.75;0.60;;;2.80;99.90;;;;;;5014295;28;20144;-54
2022/11/25 06:13:35;;;;;;;0.68;0.47;;;2.80;99.90;;;;;;5012491;28;20041;-50
2022/11/25 06:16:11;;;;;;;1.15;0.77;;;2.90;99.90;;;;;;4995356;28;20115;-54
2022/11/25 06:18:38;;;;;;;0.45;0.45;;;2.80;99.90;;;;;;5015395;28;20048;-54
2022/11/25 06:21:09;;;;;;;0.50;0.40;;;2.80;99.90;;;;;;5014275;28;20840;-54
2022/11/25 06:23:37;;;;;;;0.50;0.45;;;2.80;99.90;;;;;;5030197;28;20056;-55
2022/11/25 06:26:20;;;;;;;3.13;0.60;;;2.80;99.90;;;;;;5028368;28;20048;-54
2022/11/25 06:28:51;;;;;;;0.95;0.60;;;2.80;99.90;;;;;;5011137;28;20175;-52
2022/11/25 06:31:20;;;;;;;1.52;0.73;;;2.80;99.90;;;;;;5028166;28;20271;-55
2022/11/25 06:33:56;;;;;;;5.43;0.90;;;2.80;99.90;;;;;;4994735;28;20553;-55
2022/11/25 06:36:23;;;;;;;0.95;0.73;;;2.80;99.90;;;;;;5019033;28;20048;-54
2022/11/25 06:38:51;;;;;;;;;;;2.90;99.90;;;;;;5030857;28;20347;-54
2022/11/25 06:41:19;;;;;;;1.95;1.40;;;2.90;99.90;;;;;;5014291;28;19932;-53
2022/11/25 06:43:46;;;;;;;5.10;0.95;;;2.90;99.90;;;;;;5028770;28;20040;-52
2022/11/25 06:46:14;;;;;;;;;;;2.90;99.90;;;;;;5030442;28;20308;-54
2022/11/25 06:48:48;;;;;;;0.70;0.70;;;2.90;99.90;;;;;;5029350;28;19930;-58
2022/11/25 06:51:15;;;;;;;1.92;0.70;;;2.90;99.90;;;;;;5027722;28;20518;-53
2022/11/25 06:53:42;;;;;;;3.13;0.88;;;2.90;99.90;;;;;;5025257;28;20516;-54
2022/11/25 06:56:09;;;;;;;;;;;3.00;99.90;;;;;;5030319;28;20128;-55
2022/11/25 06:58:37;;;;;;;1.13;0.95;;;3.00;99.90;;;;;;5027715;28;20357;-52
2022/11/25 07:01:10;;;;;;;3.28;0.70;;;3.00;99.90;;;;;;5027240;28;20511;-54
2022/11/25 07:03:37;;;;;;;1.98;0.98;;;3.00;99.90;;;;;;5026885;28;20051;-54
2022/11/25 07:06:04;;;;;;;0.95;0.90;;;3.00;99.90;;;;;;5026551;28;20044;-53
2022/11/25 07:08:31;;;;;;;1.00;0.90;;;3.00;99.90;;;;;;5025614;28;20430;-52
2022/11/25 07:11:11;;;;;;;1.52;0.80;;;3.00;99.90;;;;;;5027990;28;20033;-52
2022/11/25 07:13:38;;;;;;;1.00;0.77;;;3.00;99.90;;;;;;5024931;28;20466;-54
2022/11/25 07:16:05;;;;;;;;;;;3.10;99.90;;;;;;5029221;28;20140;-54
2022/11/25 07:18:34;;;;;;;1.75;1.33;;;3.10;99.90;;;;;;5030466;28;19924;-55
2022/11/25 07:21:32;;;;;;;1.98;1.38;;;3.10;99.90;;;;;;5032023;28;20057;-54
2022/11/25 07:24:00;;;;;;;2.22;1.20;;;3.10;99.90;;;;;;5024186;28;20088;-55
2022/11/25 07:26:37;;;;;;;1.83;1.13;;;3.20;99.90;;;;;;5028003;28;20250;-53
2022/11/25 07:29:06;;;;;;;4.40;1.33;;;3.20;99.90;;;;;;5017270;28;20335;-53
2022/11/25 07:31:52;;;;;;;3.90;1.20;;;3.20;99.90;;;;;;5028027;28;20350;-55
2022/11/25 07:34:20;;;;;;;1.27;1.17;;;3.20;99.90;;;;;;5029678;28;20100;-55
2022/11/25 07:36:48;;;;;;;3.00;1.67;;;3.20;99.90;;;;;;5029655;28;20045;-53
2022/11/25 07:39:21;;;;;;;2.25;1.35;;;3.30;99.90;;;;;;5032346;28;20511;-55
2022/11/25 07:41:52;;;;;;;2.80;1.52;;;3.30;99.90;;;;;;5016127;28;20220;-53
2022/11/25 07:44:20;;;;;;;3.17;1.50;;;3.30;99.90;;;;;;5031901;28;20098;-54
2022/11/25 07:47:05;;;;;;;3.15;1.50;;;3.40;99.90;;;;;;5031507;28;20048;-55
2022/11/25 07:49:32;;;;;;;;;;;3.50;99.90;;;;;;5016265;28;20059;-54
2022/11/25 07:51:59;;;;;;;6.50;1.42;;;3.50;99.90;;;;;;5029701;28;20027;-54
2022/11/25 07:54:26;;;;;;;2.90;1.48;;;3.60;99.90;;;;;;5017644;28;20041;-55
2022/11/25 07:56:52;;;;;;;;;;;3.60;99.90;;;;;;5028353;28;20068;-55
2022/11/25 07:59:21;;;;;;;2.67;1.50;;;3.70;99.90;;;;;;5031907;28;19924;-53
2022/11/25 08:01:50;;;;;;;2.05;1.70;;;3.70;99.90;;;;;;5030844;28;20689;-53
2022/11/25 08:04:17;;;;;;;6.15;2.58;;;3.80;99.90;;;;;;5030248;28;20052;-50
2022/11/25 08:06:48;;;;;;;2.55;1.33;;;3.90;99.90;;;;;;4998830;28;20660;-52
2022/11/25 08:09:18;;;;;;;3.80;1.48;;;4.00;99.90;;;;;;5032484;28;20150;-52
2022/11/25 08:11:46;;;;;;;3.28;1.83;;;4.00;99.90;;;;;;5031625;28;20552;-53
2022/11/25 08:14:14;;;;;;;2.00;1.30;;;4.10;99.90;;;;;;5034434;28;20044;-54
2022/11/25 08:16:41;;;;;;;2.67;1.70;;;4.20;99.90;;;;;;5031114;28;20049;-52
2022/11/25 08:19:10;;;;;;;;;;;4.20;99.90;;;;;;5033271;28;20053;-54
2022/11/25 08:21:37;;;;;;;2.53;1.88;;;4.30;99.90;;;;;;5030765;28;20684;-53
2022/11/25 08:24:04;;;;;;;;;;;4.40;99.90;;;;;;5033324;28;20739;-55
2022/11/25 08:26:35;;;;;;;4.68;1.73;;;4.40;99.90;;;;;;5032878;28;19924;-53
2022/11/25 08:29:05;;;;;;;4.53;1.98;;;4.50;99.90;;;;;;5029321;28;20049;-53
2022/11/25 08:31:35;;;;;;;4.40;1.90;;;4.50;99.90;;;;;;5031246;28;20040;-54
2022/11/25 08:34:02;;;;;;;5.47;3.03;;;4.60;99.90;;;;;;5029727;28;20443;-55
2022/11/25 08:36:30;;;;;;;5.78;2.85;;;4.60;99.90;;;;;;5028833;28;20041;-52
2022/11/25 08:38:59;;;;;;;6.82;3.88;;;4.70;99.90;;;;;;5030915;28;20068;-54
2022/11/25 08:41:32;;;;;;;18.40;8.05;;;4.80;99.90;;;;;;5014274;28;20282;-52
2022/11/25 08:44:00;;;;;;;13.07;6.38;;;4.90;99.90;;;;;;5032303;28;20565;-60
2022/11/25 08:46:33;;;;;;;7.40;4.18;;;5.00;99.90;;;;;;5003599;28;20053;-52
2022/11/25 08:48:59;;;;;;;12.00;5.55;;;5.00;99.90;;;;;;5001173;28;20134;-53
2022/11/25 08:51:27;;;;;;;;;;;5.10;99.90;;;;;;4994964;28;20344;-54
2022/11/25 08:53:54;;;;;;;16.80;7.40;;;5.20;99.90;;;;;;4988757;28;19932;-54
2022/11/25 08:56:23;;;;;;;15.38;6.80;;;5.30;99.90;;;;;;4992015;28;20312;-56
2022/11/25 08:58:53;;;;;;;10.63;6.15;;;5.40;99.90;;;;;;4992175;28;20092;-54
2022/11/25 09:01:21;;;;;;;11.02;5.55;;;5.50;99.90;;;;;;4992746;28;20049;-53
2022/11/25 09:03:49;;;;;;;14.55;6.78;;;5.70;99.90;;;;;;4984173;28;20362;-54
2022/11/25 09:06:16;;;;;;;11.40;5.40;;;5.80;99.90;;;;;;4991587;28;20137;-58
2022/11/25 09:08:43;;;;;;;13.75;5.10;;;5.90;99.90;;;;;;4990741;28;20124;-51
2022/11/25 09:11:11;;;;;;;9.50;4.45;;;6.00;99.90;;;;;;4985019;28;20042;-53
2022/11/25 09:13:38;;;;;;;9.10;4.15;;;6.10;99.90;;;;;;4991881;28;20067;-51
2022/11/25 09:16:05;;;;;;;8.13;3.92;;;6.20;99.90;;;;;;4993948;28;20528;-53
2022/11/25 09:18:34;;;;;;;8.95;3.22;;;6.30;99.90;;;;;;4993524;28;20215;-54
2022/11/25 09:21:08;;;;;;;9.15;2.92;;;6.40;99.90;;;;;;4992209;28;20053;-53
2022/11/25 09:23:37;;;;;;;7.38;2.88;;;6.60;99.90;;;;;;4991381;28;20532;-55
2022/11/25 09:26:05;;;;;;;5.97;2.55;;;6.70;99.90;;;;;;4992763;28;20474;-53
2022/11/25 09:28:33;;;;;;;5.43;2.80;;;6.80;99.90;;;;;;4992948;28;20115;-54
2022/11/25 09:31:07;;;;;;;11.57;3.78;;;6.90;99.90;;;;;;4992261;28;20450;-54
2022/11/25 09:33:34;;;;;;;7.47;3.50;;;7.00;99.90;;;;;;4990484;28;20038;-52
2022/11/25 09:36:02;;;;;;;8.20;3.70;;;7.10;99.90;;;;;;4993340;28;20053;-53
2022/11/25 09:38:29;;;;;;;6.80;2.67;;;7.30;99.90;;;;;;4993666;28;20077;-53
2022/11/25 09:41:06;;;;;;;6.10;2.75;;;7.40;99.90;;;;;;4994655;28;20597;-53
2022/11/25 09:47:31;;;;;;;6.57;2.30;;;7.70;99.90;;;;;;4992261;28;20072;-52
2022/11/25 09:50:28;;;;;;;7.72;2.75;;;7.80;99.90;;;;;;4972485;28;20467;-52
2022/11/25 09:53:25;;;;;;;8.07;2.58;;;7.90;99.90;;;;;;4990956;28;20479;-52
2022/11/25 09:55:57;;;;;;;9.02;3.03;;;7.90;99.90;;;;;;4990990;28;20042;-53
2022/11/25 09:58:43;;;;;;;10.40;2.92;;;8.00;99.90;;;;;;4992872;28;20048;-52
2022/11/25 10:01:17;;;;;;;5.88;1.77;;;8.10;99.90;;;;;;4973759;28;20053;-54
2022/11/25 10:03:47;;;;;;;12.25;2.55;;;8.10;99.90;;;;;;4990217;28;20096;-53
2022/11/25 10:06:27;;;;;;;8.95;1.23;;;8.10;99.90;;;;;;4993747;28;20053;-52
2022/11/25 10:08:57;;;;;;;5.47;1.10;;;8.20;99.90;;;;;;4993443;28;20074;-56
2022/11/25 10:11:56;;;;;;;8.35;1.75;;;8.30;99.90;;;;;;4994212;28;20054;-56
2022/11/25 10:14:27;;;;;;;4.43;1.13;;;8.40;99.90;;;;;;4960240;28;20692;-56
2022/11/25 10:17:00;;;;;;;8.07;1.70;;;8.40;99.90;;;;;;4990120;28;20034;-56
2022/11/25 10:19:27;;;;;;;4.50;1.35;;;8.60;99.90;;;;;;4988086;28;20129;-56
2022/11/25 10:21:55;;;;;;;5.28;1.50;;;8.60;99.90;;;;;;4989677;28;20052;-55
2022/11/25 10:24:23;;;;;;;4.70;1.30;;;8.70;99.90;;;;;;4990272;28;20142;-52
2022/11/25 10:27:00;;;;;;;4.68;1.35;;;8.80;99.90;;;;;;4989418;28;20053;-52
2022/11/25 10:29:28;;;;;;;4.95;1.30;;;8.80;99.90;;;;;;4991278;28;20038;-54
2022/11/25 10:32:27;;;;;;;5.93;1.35;;;8.90;99.90;;;;;;4992525;28;20053;-55
2022/11/25 10:35:00;;;;;;;8.13;1.63;;;8.90;99.90;;;;;;4990931;28;20346;-63
2022/11/25 10:37:32;;;;;;;6.55;1.83;;;8.90;99.90;;;;;;4991338;28;20103;-53
2022/11/25 10:39:59;;;;;;;3.63;1.15;;;8.90;99.90;;;;;;4993002;28;20084;-53
2022/11/25 10:42:27;;;;;;;6.78;1.45;;;8.90;99.90;;;;;;4983484;28;20049;-53
2022/11/25 10:44:54;;;;;;;5.03;1.48;;;8.90;99.90;;;;;;4991784;28;20525;-53
2022/11/25 10:47:43;;;;;;;3.20;1.73;;;8.90;99.90;;;;;;4991854;28;20504;-55
2022/11/25 10:50:37;;;;;;;4.13;1.27;;;8.90;99.90;;;;;;4991421;28;20395;-53
2022/11/25 10:53:07;;;;;;;6.00;1.70;;;8.90;99.90;;;;;;4991835;28;20934;-54
2022/11/25 10:55:34;;;;;;;3.53;1.17;;;8.90;99.90;;;;;;4991024;28;20081;-53
2022/11/25 10:58:32;;;;;;;6.95;2.08;;;8.90;99.90;;;;;;4990967;28;20065;-55
2022/11/25 11:01:24;;;;;;;8.33;1.83;;;9.00;99.90;;;;;;4982442;28;20061;-54
2022/11/25 11:04:04;;;;;;;5.03;1.92;;;9.00;99.90;;;;;;4988014;28;20914;-53
2022/11/25 11:06:35;;;;;;;7.75;1.30;;;9.00;99.90;;;;;;4993211;28;20045;-56
2022/11/25 11:09:02;;;;;;;7.90;1.77;;;9.00;99.90;;;;;;4989042;28;20077;-54
2022/11/25 11:11:30;;;;;;;4.55;1.85;;;9.00;99.90;;;;;;4990824;28;20050;-54
2022/11/25 11:14:20;;;;;;;7.40;1.77;;;9.10;99.90;;;;;;4995861;28;20619;-56
2022/11/25 11:16:53;;;;;;;3.20;1.40;;;9.20;99.90;;;;;;4996303;28;20068;-54
2022/11/25 11:19:25;;;;;;;5.38;1.77;;;9.30;99.90;;;;;;4995945;28;20041;-55
2022/11/25 11:21:55;;;;;;;6.05;1.90;;;9.30;99.90;;;;;;4996916;28;20049;-54
2022/11/25 11:24:33;;;;;;;6.80;2.05;;;9.50;99.90;;;;;;4977695;28;20045;-53
2022/11/25 11:27:19;;;;;;;4.80;1.83;;;9.60;99.90;;;;;;4996801;28;20099;-54
2022/11/25 11:29:46;;;;;;;5.18;1.90;;;9.60;99.90;;;;;;4993810;28;20088;-54
2022/11/25 11:32:21;;;;;;;;;;;9.70;99.90;;;;;;4998817;28;20329;-54
2022/11/25 11:35:21;;;;;;;5.88;1.45;;;9.80;99.90;;;;;;4974248;28;19925;-53
2022/11/25 11:37:53;;;;;;;5.65;1.80;;;9.90;99.90;;;;;;4994759;28;21028;-52
2022/11/25 11:40:45;;;;;;;5.32;1.92;;;9.90;99.90;;;;;;4995524;28;20053;-52
2022/11/25 11:43:35;;;;;;;5.82;1.80;;;10.00;99.90;;;;;;4974755;28;20050;-53
2022/11/25 11:46:29;;;;;;;6.63;2.17;;;10.00;99.90;;;;;;4993043;28;20135;-54
2022/11/25 11:49:14;;;;;;;8.30;1.92;;;10.00;99.90;;;;;;4973309;28;20068;-53
2022/11/25 11:52:07;;;;;;;4.28;1.80;;;10.00;99.90;;;;;;4994715;28;20585;-52
2022/11/25 11:54:39;;;;;;;4.95;1.63;;;10.00;99.90;;;;;;4992977;28;20049;-54
2022/11/25 11:57:09;;;;;;;7.80;2.25;;;10.00;99.90;;;;;;4995162;28;20049;-53
2022/11/25 11:59:39;;;;;;;4.28;1.85;;;10.00;99.90;;;;;;4995899;28;20076;-53
2022/11/25 12:02:24;;;;;;;8.95;2.22;;;10.10;99.90;;;;;;4993999;28;20555;-53
2022/11/25 12:05:14;;;;;;;8.57;2.25;;;10.10;99.90;;;;;;4993512;28;20050;-55
2022/11/25 12:08:22;;;;;;;6.07;1.63;;;10.10;99.90;;;;;;4992763;28;20048;-54
2022/11/25 12:11:24;;;;;;;9.85;2.65;;;10.10;99.90;;;;;;4994330;28;20250;-56
2022/11/25 12:14:23;;;;;;;6.70;2.05;;;10.10;99.90;;;;;;4994973;28;20049;-55
2022/11/25 12:17:00;;;;;;;8.52;2.03;;;10.00;99.90;;;;;;4995128;28;20046;-51
2022/11/25 12:19:49;;;;;;;7.55;2.15;;;10.00;99.90;;;;;;4993845;28;20662;-52
2022/11/25 12:22:31;;;;;;;5.22;2.88;;;9.90;99.90;;;;;;4994252;28;20045;-56
2022/11/25 12:25:05;;;;;;;8.50;2.83;;;9.80;99.90;;;;;;4990605;28;20523;-54
2022/11/25 12:27:43;;;;;;;11.27;2.00;;;9.80;99.90;;;;;;4993941;28;20065;-55
2022/11/25 12:30:15;;;;;;;3.80;1.92;;;9.80;99.90;;;;;;4995119;28;20974;-54
2022/11/25 12:33:05;;;;;;;6.82;2.72;;;9.70;99.90;;;;;;4996965;28;20118;-55
2022/11/25 12:35:50;;;;;;;7.05;2.22;;;9.70;99.90;;;;;;4993037;28;20281;-58
2022/11/25 12:38:29;;;;;;;7.72;2.50;;;9.60;99.90;;;;;;4994190;28;20550;-55
2022/11/25 12:41:11;;;;;;;14.43;2.88;;;9.50;99.90;;;;;;4992642;28;20045;-55
2022/11/25 12:44:11;;;;;;;12.32;2.50;;;9.40;99.90;;;;;;4989819;28;20464;-56
2022/11/25 12:46:49;;;;;;;8.30;2.45;;;9.40;99.90;;;;;;4995845;28;20128;-55
2022/11/25 12:49:29;;;;;;;8.88;2.72;;;9.30;99.90;;;;;;4976074;28;20052;-55
2022/11/25 12:52:01;;;;;;;9.70;2.50;;;9.30;99.90;;;;;;4992965;28;20124;-57
2022/11/25 12:54:53;;;;;;;6.47;2.28;;;9.20;99.90;;;;;;4990854;28;20056;-56
2022/11/25 12:57:32;;;;;;;11.88;2.80;;;9.10;99.90;;;;;;4988687;28;20050;-54
2022/11/25 13:00:20;;;;;;;8.32;1.90;;;9.10;99.90;;;;;;4992028;28;20050;-52
2022/11/25 13:03:59;;;;;;;4.95;1.73;;;9.00;99.90;;;;;;4977457;28;20049;-52
2022/11/25 13:06:37;;;;;;;4.97;1.55;;;9.00;99.90;;;;;;4944333;28;20056;-53
2022/11/25 13:09:10;;;;;;;7.88;1.73;;;8.90;99.90;;;;;;4994555;28;20037;-54
2022/11/25 13:11:59;;;;;;;8.88;2.10;;;8.90;99.90;;;;;;4993083;28;20056;-53
2022/11/25 13:14:38;;;;;;;5.82;1.63;;;8.90;99.90;;;;;;4990830;28;20759;-55
2022/11/25 13:17:12;;;;;;;7.47;2.67;;;8.80;99.90;;;;;;4993846;28;20676;-52
2022/11/25 13:19:40;;;;;;;5.30;1.95;;;8.80;99.90;;;;;;4992367;28;20156;-52
2022/11/25 13:22:28;;;;;;;6.20;2.20;;;8.80;99.90;;;;;;4991246;28;20484;-54
2022/11/25 13:24:57;;;;;;;5.72;1.88;;;8.80;99.90;;;;;;4993313;28;20053;-54
2022/11/25 13:27:38;;;;;;;11.13;2.28;;;8.70;99.90;;;;;;4990719;28;20052;-56
2022/11/25 13:30:31;;;;;;;9.38;1.98;;;8.70;99.90;;;;;;4992860;28;20116;-55
2022/11/25 13:33:10;;;;;;;8.82;1.80;;;8.70;99.90;;;;;;4989654;28;20059;-57
2022/11/25 13:35:48;;;;;;;7.18;2.60;;;8.60;99.90;;;;;;4994001;28;20073;-56
2022/11/25 13:38:35;;;;;;;8.00;1.40;;;8.60;99.90;;;;;;4989826;28;20046;-56